Time;durP1;ratioP1;P1;durP2;ratioP2;P2;SDS_P1;SDS_P2;PMS_P1;PMS_P2;Temp;Humidity;BMP_temperature;BMP_pressure;BME280_temperature;BME280_humidity;BME280_pressure;Samples;Min_cycle;Max_cycle;Signal;HPM_P1;HPM_P2
2021/05/29 00:00:33;;;;;;;17.92;12.48;;;9.70;99.60;;;;;;5027838;28;20052;-52
2021/05/29 00:03:03;;;;;;;14.60;12.32;;;9.70;99.90;;;;;;5027870;28;20108;-54
2021/05/29 00:05:38;;;;;;;16.02;12.43;;;9.60;99.90;;;;;;5027603;28;20188;-54
2021/05/29 00:08:12;;;;;;;16.17;12.73;;;9.50;99.90;;;;;;5025639;28;20041;-52
2021/05/29 00:10:41;;;;;;;18.48;12.40;;;9.50;99.90;;;;;;5027542;28;20053;-53
2021/05/29 00:13:14;;;;;;;15.77;12.20;;;9.40;99.90;;;;;;5024715;28;20056;-53
2021/05/29 00:15:43;;;;;;;17.63;11.60;;;9.40;99.90;;;;;;5027317;28;20104;-53
2021/05/29 00:18:10;;;;;;;19.35;12.70;;;9.40;99.90;;;;;;5026952;28;20076;-53
2021/05/29 00:20:39;;;;;;;13.85;12.35;;;9.30;99.90;;;;;;5027319;28;20085;-53
2021/05/29 00:23:13;;;;;;;15.55;12.35;;;9.30;99.90;;;;;;5026312;28;20076;-52
2021/05/29 00:25:41;;;;;;;17.38;12.60;;;9.30;99.90;;;;;;5024100;28;20104;-51
2021/05/29 00:28:10;;;;;;;18.98;12.20;;;9.20;99.90;;;;;;5023087;28;20055;-53
2021/05/29 00:30:45;;;;;;;18.27;12.52;;;9.20;99.90;;;;;;5023067;28;20614;-53
2021/05/29 00:33:14;;;;;;;20.42;13.63;;;9.20;99.90;;;;;;5029236;28;20128;-52
2021/05/29 00:35:42;;;;;;;19.77;13.85;;;9.10;99.90;;;;;;5026688;28;20049;-52
2021/05/29 00:38:09;;;;;;;17.85;13.27;;;9.10;99.90;;;;;;5027082;28;20045;-53
2021/05/29 00:40:39;;;;;;;19.73;12.70;;;9.10;99.90;;;;;;5026714;28;20061;-53
2021/05/29 00:43:08;;;;;;;15.73;13.18;;;9.10;99.90;;;;;;5023876;28;20049;-52
2021/05/29 00:45:35;;;;;;;16.67;13.88;;;9.00;99.90;;;;;;5027274;28;20180;-51
2021/05/29 00:48:02;;;;;;;19.33;13.75;;;9.10;99.90;;;;;;5026298;28;20049;-49
2021/05/29 00:50:32;;;;;;;18.60;13.48;;;9.00;99.90;;;;;;5028460;28;20474;-52
2021/05/29 00:53:00;;;;;;;20.15;13.52;;;9.00;99.90;;;;;;5026176;28;20045;-52
2021/05/29 00:55:29;;;;;;;17.58;13.82;;;9.00;99.90;;;;;;5026271;28;20132;-52
2021/05/29 00:57:56;;;;;;;18.60;15.23;;;9.00;99.90;;;;;;5023995;28;20454;-51
2021/05/29 01:00:24;;;;;;;19.25;14.23;;;9.00;99.90;;;;;;5026521;28;20056;-50
2021/05/29 01:02:51;;;;;;;20.25;14.82;;;9.00;99.90;;;;;;5026419;28;20064;-52
2021/05/29 01:05:22;;;;;;;19.17;14.57;;;9.00;99.90;;;;;;5026739;28;20060;-53
2021/05/29 01:07:53;;;;;;;22.50;14.82;;;8.90;99.90;;;;;;5027027;28;20057;-53
2021/05/29 01:10:22;;;;;;;22.40;14.63;;;8.80;99.90;;;;;;5032079;28;20045;-53
2021/05/29 01:12:57;;;;;;;22.98;14.75;;;8.80;99.90;;;;;;5026554;28;20057;-50
2021/05/29 01:15:34;;;;;;;23.38;15.27;;;8.70;99.90;;;;;;5023392;28;20073;-53
2021/05/29 01:18:05;;;;;;;18.95;13.98;;;8.80;99.90;;;;;;5025537;28;20049;-53
2021/05/29 01:20:32;;;;;;;21.40;15.07;;;8.80;99.90;;;;;;5025637;28;20053;-51
2021/05/29 01:22:59;;;;;;;22.00;14.98;;;8.80;99.90;;;;;;5024450;28;20143;-55
2021/05/29 01:25:32;;;;;;;21.80;15.05;;;8.80;99.90;;;;;;5026176;28;20136;-52
2021/05/29 01:28:06;;;;;;;22.52;15.93;;;8.80;99.90;;;;;;5033280;28;20096;-52
2021/05/29 01:30:45;;;;;;;19.48;15.45;;;8.70;99.90;;;;;;5023516;28;20054;-53
2021/05/29 01:33:17;;;;;;;25.55;16.23;;;8.70;99.90;;;;;;5026148;28;20053;-52
2021/05/29 01:35:44;;;;;;;18.90;14.30;;;8.70;99.90;;;;;;5023434;28;20045;-53
2021/05/29 01:38:14;;;;;;;21.38;15.48;;;8.60;99.90;;;;;;5025532;28;20057;-52
2021/05/29 01:40:45;;;;;;;21.45;15.02;;;8.60;99.90;;;;;;5026238;28;20136;-55
2021/05/29 01:43:16;;;;;;;19.27;13.20;;;8.60;99.90;;;;;;5002237;28;20073;-51
2021/05/29 01:45:47;;;;;;;17.13;13.85;;;8.60;99.90;;;;;;5024146;28;20062;-51
2021/05/29 01:48:18;;;;;;;22.48;14.57;;;8.60;99.90;;;;;;5025795;28;20100;-53
2021/05/29 01:50:52;;;;;;;20.35;15.63;;;8.50;99.90;;;;;;5025441;28;20058;-52
2021/05/29 01:53:25;;;;;;;20.95;14.88;;;8.50;99.90;;;;;;5025475;28;20052;-55
2021/05/29 01:55:59;;;;;;;24.38;16.73;;;8.50;99.90;;;;;;5025960;28;20058;-53
2021/05/29 01:58:31;;;;;;;21.67;16.67;;;8.50;99.90;;;;;;5020062;28;20100;-51
2021/05/29 02:00:57;;;;;;;27.20;18.00;;;8.40;99.90;;;;;;5030061;28;20046;-54
2021/05/29 02:03:26;;;;;;;25.80;18.10;;;8.40;99.90;;;;;;5003668;28;20049;-52
2021/05/29 02:05:58;;;;;;;25.42;20.65;;;8.40;99.90;;;;;;5027426;28;20041;-55
2021/05/29 02:08:25;;;;;;;27.15;19.25;;;8.40;99.90;;;;;;5029511;28;20045;-52
2021/05/29 02:10:51;;;;;;;27.50;21.33;;;8.40;99.90;;;;;;5029665;28;20053;-56
2021/05/29 02:13:24;;;;;;;26.58;19.75;;;8.40;99.90;;;;;;5029267;28;20061;-53
2021/05/29 02:15:54;;;;;;;27.30;21.00;;;8.40;99.90;;;;;;5029335;28;20693;-52
2021/05/29 02:18:21;;;;;;;21.90;18.20;;;8.40;99.90;;;;;;5029671;28;20053;-52
2021/05/29 02:20:58;;;;;;;23.65;17.00;;;8.40;99.90;;;;;;5029209;28;20068;-54
2021/05/29 02:23:43;;;;;;;19.98;15.82;;;8.30;99.90;;;;;;5027034;28;20051;-55
2021/05/29 02:26:15;;;;;;;21.03;16.67;;;8.30;99.90;;;;;;5029535;28;20124;-51
2021/05/29 02:28:50;;;;;;;19.15;14.77;;;8.20;99.90;;;;;;5028913;28;20053;-50
2021/05/29 02:31:21;;;;;;;18.45;13.55;;;8.20;99.90;;;;;;5028559;28;20083;-53
2021/05/29 02:33:48;;;;;;;19.48;14.00;;;8.00;99.90;;;;;;5028355;28;20049;-55
2021/05/29 02:36:20;;;;;;;15.90;14.13;;;8.10;99.90;;;;;;5028286;28;20508;-52
2021/05/29 02:38:49;;;;;;;14.05;11.95;;;8.00;99.90;;;;;;5029212;28;20061;-51
2021/05/29 02:41:19;;;;;;;13.32;11.30;;;8.00;99.90;;;;;;5028176;28;20136;-54
2021/05/29 02:43:48;;;;;;;17.88;14.05;;;7.90;99.90;;;;;;5027774;28;20053;-55
2021/05/29 02:46:18;;;;;;;17.58;14.25;;;7.80;99.90;;;;;;5028357;28;20050;-53
2021/05/29 02:48:47;;;;;;;16.08;12.88;;;7.80;99.90;;;;;;5028625;28;20413;-52
2021/05/29 02:51:17;;;;;;;17.92;13.13;;;7.80;99.90;;;;;;5028502;28;20061;-54
2021/05/29 02:53:45;;;;;;;17.08;13.85;;;7.80;99.90;;;;;;5028496;28;20072;-54
2021/05/29 02:56:12;;;;;;;16.30;13.75;;;7.80;99.90;;;;;;5028432;28;20149;-54
2021/05/29 02:58:42;;;;;;;14.32;11.93;;;7.80;99.90;;;;;;5028361;28;20898;-50
2021/05/29 03:01:12;;;;;;;14.20;11.65;;;7.80;99.90;;;;;;5027388;28;20077;-52
2021/05/29 03:03:41;;;;;;;14.52;10.82;;;7.80;99.90;;;;;;5028005;28;20112;-53
2021/05/29 03:06:10;;;;;;;19.60;13.77;;;7.80;99.90;;;;;;5028688;28;20053;-51
2021/05/29 03:08:40;;;;;;;16.83;12.88;;;7.90;99.90;;;;;;5028223;28;20076;-52
2021/05/29 03:11:08;;;;;;;15.07;12.55;;;7.90;99.90;;;;;;5012727;28;20050;-54
2021/05/29 03:13:40;;;;;;;17.88;13.52;;;7.90;99.90;;;;;;5028512;28;20064;-53
2021/05/29 03:16:09;;;;;;;19.58;14.07;;;8.10;99.90;;;;;;5028108;28;20065;-53
2021/05/29 03:18:36;;;;;;;21.48;15.55;;;8.20;99.90;;;;;;5005376;28;20049;-54
2021/05/29 03:21:03;;;;;;;19.30;16.45;;;8.20;99.90;;;;;;5027976;28;20052;-54
2021/05/29 03:23:32;;;;;;;22.13;16.48;;;8.20;99.90;;;;;;5027966;28;20063;-54
2021/05/29 03:26:01;;;;;;;20.75;16.27;;;8.30;99.90;;;;;;5027583;28;20048;-55
2021/05/29 03:28:32;;;;;;;20.15;16.83;;;8.40;99.90;;;;;;5027628;28;20145;-55
2021/05/29 03:30:58;;;;;;;22.95;17.48;;;8.50;99.90;;;;;;5027992;28;20049;-55
2021/05/29 03:33:27;;;;;;;17.23;14.13;;;8.50;99.90;;;;;;5027934;28;20529;-51
2021/05/29 03:35:54;;;;;;;17.40;14.20;;;8.60;99.90;;;;;;5027593;28;20053;-53
2021/05/29 03:38:24;;;;;;;23.05;15.75;;;8.70;99.90;;;;;;5031248;28;20100;-56
2021/05/29 03:40:54;;;;;;;22.25;19.45;;;8.70;99.90;;;;;;5028245;28;20486;-52
2021/05/29 03:43:26;;;;;;;25.92;21.50;;;8.80;99.90;;;;;;5027512;28;20124;-56
2021/05/29 03:45:58;;;;;;;32.15;22.42;;;8.90;99.90;;;;;;5017094;28;20060;-51
2021/05/29 03:48:27;;;;;;;27.75;21.40;;;9.00;99.90;;;;;;5001663;28;20779;-54
2021/05/29 03:50:56;;;;;;;26.35;21.58;;;9.10;99.90;;;;;;5027586;28;20172;-54
2021/05/29 03:53:25;;;;;;;30.55;22.25;;;9.10;99.90;;;;;;5031861;28;20045;-50
2021/05/29 03:55:52;;;;;;;26.83;21.75;;;9.20;99.90;;;;;;5030424;28;20041;-54
2021/05/29 03:58:19;;;;;;;20.60;18.40;;;9.30;99.90;;;;;;5027732;28;20734;-51
2021/05/29 04:00:48;;;;;;;21.92;17.40;;;9.40;99.90;;;;;;5026980;28;20049;-55
2021/05/29 04:03:20;;;;;;;20.10;16.00;;;9.30;99.90;;;;;;5025176;28;20064;-53
2021/05/29 04:05:52;;;;;;;20.10;16.50;;;9.40;99.90;;;;;;5031472;28;20425;-53
2021/05/29 04:08:22;;;;;;;20.52;16.88;;;9.40;99.90;;;;;;5026822;28;20050;-54
2021/05/29 04:10:49;;;;;;;25.33;17.58;;;9.40;99.90;;;;;;5028032;28;20490;-55
2021/05/29 04:13:21;;;;;;;26.30;20.35;;;9.50;99.90;;;;;;5027475;28;20064;-55
2021/05/29 04:15:47;;;;;;;23.63;19.92;;;9.50;99.90;;;;;;5027062;28;20462;-52
2021/05/29 04:18:21;;;;;;;30.17;21.35;;;9.60;99.90;;;;;;5026940;28;20080;-54
2021/05/29 04:20:51;;;;;;;27.58;20.23;;;9.70;99.90;;;;;;5027157;28;20076;-52
2021/05/29 04:23:17;;;;;;;27.67;21.98;;;9.80;99.90;;;;;;5025557;28;20572;-55
2021/05/29 04:25:50;;;;;;;30.42;22.20;;;9.80;99.90;;;;;;5026918;28;20049;-54
2021/05/29 04:28:17;;;;;;;30.23;22.25;;;9.90;99.90;;;;;;5026835;28;20052;-52
2021/05/29 04:30:44;;;;;;;28.08;22.30;;;10.00;99.90;;;;;;5026989;28;20055;-55
2021/05/29 04:33:16;;;;;;;29.52;23.23;;;10.00;99.90;;;;;;5026362;28;20049;-54
2021/05/29 04:35:44;;;;;;;27.42;20.77;;;10.10;99.90;;;;;;5007224;28;20053;-51
2021/05/29 04:38:11;;;;;;;26.88;21.75;;;10.10;99.90;;;;;;4992424;28;20053;-52
2021/05/29 04:40:40;;;;;;;29.25;22.10;;;10.20;99.90;;;;;;5026852;28;20049;-52
2021/05/29 04:43:07;;;;;;;28.73;20.50;;;10.20;99.90;;;;;;5027258;28;20050;-55
2021/05/29 04:45:36;;;;;;;24.83;19.85;;;10.20;99.90;;;;;;5027636;28;20077;-54
2021/05/29 04:48:03;;;;;;;28.90;22.50;;;10.30;99.90;;;;;;5027597;28;20073;-55
2021/05/29 04:50:30;;;;;;;25.10;20.38;;;10.40;99.90;;;;;;5034638;28;20052;-52
2021/05/29 04:53:03;;;;;;;31.75;22.38;;;10.40;99.90;;;;;;5026183;28;20575;-53
2021/05/29 04:55:32;;;;;;;27.95;21.08;;;10.40;99.90;;;;;;5024555;28;20148;-53
2021/05/29 04:58:01;;;;;;;28.17;21.48;;;10.50;99.90;;;;;;5020580;28;20056;-54
2021/05/29 05:00:33;;;;;;;30.88;22.35;;;10.50;99.90;;;;;;5026215;28;20052;-54
2021/05/29 05:03:00;;;;;;;26.67;21.10;;;10.50;99.90;;;;;;5026607;28;20099;-50
2021/05/29 05:05:32;;;;;;;28.45;22.08;;;10.60;99.90;;;;;;5025338;28;20045;-55
2021/05/29 05:07:59;;;;;;;27.75;21.08;;;10.60;99.90;;;;;;5026212;28;20514;-55
2021/05/29 05:10:33;;;;;;;27.83;20.98;;;10.70;99.90;;;;;;5008890;28;20589;-55
2021/05/29 05:12:59;;;;;;;27.98;21.60;;;10.70;99.90;;;;;;5026024;28;20511;-52
2021/05/29 05:15:28;;;;;;;23.48;19.98;;;10.70;99.90;;;;;;5025992;28;20405;-52
2021/05/29 05:17:58;;;;;;;24.70;20.98;;;10.70;99.90;;;;;;5026072;28;20099;-51
2021/05/29 05:20:28;;;;;;;27.58;21.98;;;10.70;99.90;;;;;;5027837;28;20061;-54
2021/05/29 05:22:56;;;;;;;24.80;19.80;;;10.70;99.90;;;;;;5024819;28;20108;-53
2021/05/29 05:25:32;;;;;;;26.00;21.13;;;10.80;99.90;;;;;;5030225;28;20067;-53
2021/05/29 05:27:59;;;;;;;23.63;20.67;;;10.80;99.90;;;;;;5025861;28;20490;-52
2021/05/29 05:30:34;;;;;;;25.42;19.88;;;10.90;99.90;;;;;;5026139;28;20064;-53
2021/05/29 05:33:04;;;;;;;26.67;19.58;;;10.90;99.90;;;;;;5026228;28;20547;-54
2021/05/29 05:35:31;;;;;;;22.60;18.63;;;11.00;99.90;;;;;;5035879;28;20049;-53
2021/05/29 05:38:01;;;;;;;23.48;19.20;;;11.00;99.90;;;;;;5010486;28;20058;-53
2021/05/29 05:40:28;;;;;;;25.73;19.27;;;11.10;99.90;;;;;;5030146;28;20490;-55
2021/05/29 05:42:55;;;;;;;22.80;18.58;;;11.10;99.90;;;;;;5027190;28;20795;-55
2021/05/29 05:45:22;;;;;;;26.70;19.70;;;11.10;99.90;;;;;;5029628;28;20894;-57
2021/05/29 05:47:54;;;;;;;25.50;20.55;;;11.20;99.90;;;;;;5025535;28;20744;-57
2021/05/29 05:50:29;;;;;;;28.95;23.17;;;11.20;99.90;;;;;;5025006;28;20498;-57
2021/05/29 05:52:56;;;;;;;24.77;21.92;;;11.30;99.90;;;;;;5033157;28;20044;-58
2021/05/29 05:55:31;;;;;;;23.77;21.15;;;11.40;99.90;;;;;;5022824;28;20735;-58
2021/05/29 05:58:02;;;;;;;25.67;20.88;;;11.50;99.90;;;;;;5024522;28;20156;-58
2021/05/29 06:00:31;;;;;;;25.58;20.17;;;11.60;99.90;;;;;;5020980;28;20057;-57
2021/05/29 06:03:00;;;;;;;25.77;22.30;;;11.70;99.90;;;;;;5027755;28;20041;-57
2021/05/29 06:05:31;;;;;;;28.30;22.83;;;11.70;99.90;;;;;;5021532;28;20045;-57
2021/05/29 06:08:04;;;;;;;28.95;21.85;;;11.80;99.90;;;;;;5027784;28;20145;-57
2021/05/29 06:10:37;;;;;;;28.40;21.10;;;12.00;99.90;;;;;;5025578;28;20528;-57
2021/05/29 06:13:04;;;;;;;38.75;31.42;;;12.10;99.90;;;;;;5030962;28;20049;-57
2021/05/29 06:21:08;;;;;;;27.00;20.95;;;12.30;99.90;;;;;;5028744;28;20133;-58
2021/05/29 06:23:42;;;;;;;50.03;41.97;;;12.50;99.90;;;;;;5028909;28;20576;-58
2021/05/29 06:26:11;;;;;;;29.10;21.92;;;12.50;99.90;;;;;;5028966;28;20875;-58
2021/05/29 06:28:43;;;;;;;28.30;19.52;;;12.60;99.90;;;;;;5025970;28;20057;-56
2021/05/29 06:31:13;;;;;;;24.45;20.70;;;12.60;99.90;;;;;;5028383;28;20049;-58
2021/05/29 06:33:39;;;;;;;21.63;19.42;;;12.80;99.90;;;;;;5028288;28;20556;-57
2021/05/29 06:36:06;;;;;;;25.85;20.65;;;12.80;99.90;;;;;;5028900;28;20065;-58
2021/05/29 06:38:37;;;;;;;23.95;18.63;;;12.80;99.90;;;;;;5028241;28;20045;-58
2021/05/29 06:41:04;;;;;;;24.02;21.50;;;12.80;99.90;;;;;;5025777;28;20049;-57
2021/05/29 06:43:36;;;;;;;21.33;17.90;;;12.90;99.90;;;;;;5024351;28;20050;-58
2021/05/29 06:46:03;;;;;;;23.25;18.60;;;13.00;99.90;;;;;;5026546;28;20053;-56
2021/05/29 06:48:35;;;;;;;81.13;70.60;;;13.00;99.90;;;;;;5027569;28;20060;-58
2021/05/29 06:51:09;;;;;;;28.13;22.50;;;13.10;99.70;;;;;;5032366;28;20133;-58
2021/05/29 06:53:47;;;;;;;21.90;18.23;;;13.10;99.50;;;;;;5028429;28;20410;-58
2021/05/29 06:59:07;;;;;;;24.05;20.55;;;13.10;99.40;;;;;;5012157;28;20045;-58
2021/05/29 07:01:35;;;;;;;23.73;18.67;;;13.20;99.00;;;;;;5027421;28;20564;-57
2021/05/29 07:04:04;;;;;;;19.35;17.00;;;13.20;99.20;;;;;;5027548;28;20115;-58
2021/05/29 07:06:31;;;;;;;21.40;18.25;;;13.20;99.10;;;;;;5028208;28;20077;-58
2021/05/29 07:09:02;;;;;;;22.42;20.02;;;13.30;98.80;;;;;;5027425;28;20042;-58
2021/05/29 07:11:29;;;;;;;26.33;18.75;;;13.30;98.70;;;;;;5027680;28;20045;-58
2021/05/29 07:13:59;;;;;;;21.75;17.98;;;13.40;98.60;;;;;;5027419;28;20088;-57
2021/05/29 07:16:25;;;;;;;28.98;24.27;;;13.50;98.40;;;;;;5024785;28;20764;-58
2021/05/29 07:18:52;;;;;;;21.33;17.55;;;13.60;98.30;;;;;;5027117;28;20330;-58
2021/05/29 07:21:21;;;;;;;23.67;20.20;;;13.60;97.70;;;;;;5027170;28;20084;-58
2021/05/29 07:23:48;;;;;;;19.92;16.65;;;13.60;97.60;;;;;;5028730;28;20650;-57
2021/05/29 07:26:14;;;;;;;15.93;12.60;;;13.80;97.50;;;;;;5027381;28;20053;-58
2021/05/29 07:28:46;;;;;;;16.33;14.60;;;13.80;97.00;;;;;;5026807;28;20417;-57
2021/05/29 07:31:16;;;;;;;17.75;14.13;;;13.80;96.50;;;;;;5027757;28;20730;-58
2021/05/29 07:33:50;;;;;;;13.63;9.93;;;13.90;96.50;;;;;;5027307;28;20792;-58
2021/05/29 07:36:17;;;;;;;16.63;11.98;;;14.10;96.00;;;;;;5027753;28;20159;-58
2021/05/29 07:38:47;;;;;;;15.00;11.88;;;14.10;95.70;;;;;;5028283;28;20046;-58
2021/05/29 07:41:16;;;;;;;16.92;12.35;;;14.20;95.60;;;;;;5030361;28;20134;-58
2021/05/29 07:43:48;;;;;;;15.35;12.25;;;14.30;95.80;;;;;;5027075;28;20058;-58
2021/05/29 07:46:19;;;;;;;15.48;11.15;;;14.30;95.60;;;;;;5029458;28;20045;-58
2021/05/29 07:48:55;;;;;;;15.70;12.65;;;14.10;95.30;;;;;;5026882;28;20077;-58
2021/05/29 07:51:22;;;;;;;17.23;15.15;;;14.00;94.70;;;;;;5027207;28;20049;-58
2021/05/29 07:53:58;;;;;;;18.67;16.10;;;13.80;95.00;;;;;;5023771;28;20128;-56
2021/05/29 07:56:25;;;;;;;19.60;16.08;;;13.60;94.80;;;;;;5023788;28;20061;-58
2021/05/29 07:58:58;;;;;;;18.52;16.48;;;13.80;95.50;;;;;;5022740;28;20061;-57
2021/05/29 08:01:25;;;;;;;22.08;16.38;;;14.00;95.60;;;;;;5007263;28;20053;-58
2021/05/29 08:03:56;;;;;;;20.58;17.52;;;14.50;95.70;;;;;;5025337;28;20075;-60
2021/05/29 08:06:24;;;;;;;18.73;16.30;;;14.70;94.70;;;;;;4993803;28;20060;-60
2021/05/29 08:08:55;;;;;;;22.17;19.40;;;14.70;94.80;;;;;;5007462;28;20123;-60
2021/05/29 08:11:30;;;;;;;16.92;15.20;;;14.80;94.20;;;;;;5024213;28;20046;-59
2021/05/29 08:13:57;;;;;;;17.92;14.70;;;14.70;93.00;;;;;;5012953;28;20930;-59
2021/05/29 08:16:27;;;;;;;17.20;15.40;;;14.70;92.80;;;;;;5007444;28;20053;-60
2021/05/29 08:18:56;;;;;;;18.52;13.82;;;14.80;94.30;;;;;;5004537;28;20052;-59
2021/05/29 08:21:29;;;;;;;16.55;14.60;;;15.00;93.80;;;;;;5005835;28;20057;-60
2021/05/29 08:23:58;;;;;;;16.33;14.63;;;15.20;93.30;;;;;;5012984;28;20049;-60
2021/05/29 08:26:27;;;;;;;17.02;14.70;;;15.40;91.10;;;;;;5024087;28;20044;-59
2021/05/29 08:28:54;;;;;;;17.70;14.38;;;15.40;92.30;;;;;;5003559;28;20072;-60
2021/05/29 08:31:26;;;;;;;13.77;11.02;;;15.60;92.30;;;;;;5003708;28;20061;-60
2021/05/29 08:33:59;;;;;;;14.88;12.95;;;15.80;90.20;;;;;;5020894;28;20360;-59
2021/05/29 08:36:28;;;;;;;15.82;12.68;;;15.70;90.80;;;;;;5013666;28;20046;-60
2021/05/29 08:39:00;;;;;;;56.45;48.05;;;15.70;90.80;;;;;;5022535;28;20127;-60
2021/05/29 08:41:32;;;;;;;22.10;18.98;;;15.70;90.30;;;;;;5023245;28;20569;-60
2021/05/29 08:44:02;;;;;;;21.85;17.80;;;15.70;90.50;;;;;;5007418;28;20081;-60
2021/05/29 08:46:38;;;;;;;11.20;8.52;;;15.70;90.20;;;;;;5015154;28;20061;-60
2021/05/29 08:49:10;;;;;;;20.25;17.58;;;15.90;86.10;;;;;;5023376;28;20045;-60
2021/05/29 08:51:40;;;;;;;42.95;36.03;;;16.00;88.50;;;;;;5004749;28;20140;-60
2021/05/29 08:54:11;;;;;;;8.77;7.03;;;16.10;87.80;;;;;;5014493;28;20045;-60
2021/05/29 08:56:40;;;;;;;10.05;7.32;;;16.30;83.40;;;;;;5022920;28;20057;-59
2021/05/29 08:59:13;;;;;;;15.18;12.30;;;17.30;83.40;;;;;;5022763;28;20042;-60
2021/05/29 09:01:42;;;;;;;17.65;14.73;;;17.80;84.20;;;;;;5022964;28;20136;-60
2021/05/29 09:04:15;;;;;;;13.20;9.20;;;17.70;81.70;;;;;;5008721;28;20541;-60
2021/05/29 09:06:47;;;;;;;8.02;7.00;;;17.60;82.40;;;;;;5016590;28;20100;-60
2021/05/29 09:09:15;;;;;;;8.85;6.57;;;17.50;80.10;;;;;;5003481;28;20169;-59
2021/05/29 09:11:50;;;;;;;8.93;6.43;;;17.70;80.50;;;;;;5006460;28;20570;-60
2021/05/29 09:14:29;;;;;;;11.00;7.78;;;17.80;76.80;;;;;;5023154;28;20140;-59
2021/05/29 09:17:19;;;;;;;10.25;9.15;;;17.90;77.90;;;;;;5022354;28;20053;-60
2021/05/29 09:19:59;;;;;;;28.75;25.48;;;17.70;78.60;;;;;;5000863;28;20069;-59
2021/05/29 09:22:55;;;;;;;11.18;9.23;;;17.60;77.40;;;;;;5022852;28;20132;-58
2021/05/29 09:25:23;;;;;;;9.63;8.07;;;17.30;76.30;;;;;;5009453;28;20050;-56
2021/05/29 09:28:03;;;;;;;8.95;7.15;;;17.40;80.60;;;;;;4986872;28;20125;-59
2021/05/29 09:30:51;;;;;;;10.35;6.78;;;17.40;76.70;;;;;;5007955;28;20052;-58
2021/05/29 09:33:27;;;;;;;10.15;7.05;;;17.60;75.60;;;;;;5023243;28;20061;-59
2021/05/29 09:36:09;;;;;;;10.93;8.32;;;17.60;76.50;;;;;;5021863;28;20076;-58
2021/05/29 09:38:54;;;;;;;19.65;15.80;;;17.30;71.60;;;;;;5005268;28;20485;-59
2021/05/29 09:41:34;;;;;;;13.68;11.77;;;17.60;76.30;;;;;;5022437;28;20103;-58
2021/05/29 09:44:06;;;;;;;7.90;6.72;;;17.80;77.00;;;;;;5022447;28;20060;-59
2021/05/29 09:46:56;;;;;;;8.10;6.05;;;17.90;75.60;;;;;;4996674;28;20054;-59
2021/05/29 09:49:49;;;;;;;7.95;5.65;;;18.10;72.00;;;;;;5002389;28;20096;-58
2021/05/29 09:52:37;;;;;;;9.55;5.43;;;18.80;67.90;;;;;;5016057;28;20045;-59
2021/05/29 09:55:11;;;;;;;7.20;6.20;;;19.30;69.90;;;;;;5020418;28;20042;-54
2021/05/29 09:58:09;;;;;;;11.13;8.02;;;19.80;68.30;;;;;;5025230;28;20041;-60
2021/05/29 10:00:43;;;;;;;13.73;12.10;;;20.00;64.50;;;;;;4953273;28;20051;-60
2021/05/29 10:03:10;;;;;;;10.93;8.18;;;20.00;70.00;;;;;;4956995;28;20047;-59
2021/05/29 10:05:37;;;;;;;9.80;7.95;;;19.50;70.70;;;;;;4953366;28;20061;-59
2021/05/29 10:08:04;;;;;;;10.85;6.88;;;19.10;71.20;;;;;;4949632;28;20831;-59
2021/05/29 10:10:35;;;;;;;15.45;11.45;;;19.10;72.90;;;;;;4954533;28;20082;-58
2021/05/29 10:13:02;;;;;;;19.75;17.73;;;19.10;70.30;;;;;;4957699;28;20101;-58
2021/05/29 10:15:29;;;;;;;11.13;7.45;;;19.30;69.30;;;;;;4952253;28;20058;-58
2021/05/29 10:17:57;;;;;;;9.82;7.18;;;19.80;71.20;;;;;;4956599;28;20058;-58
2021/05/29 10:20:24;;;;;;;8.77;7.55;;;20.30;67.30;;;;;;4962587;28;20554;-58
2021/05/29 10:22:50;;;;;;;14.68;13.05;;;20.60;65.90;;;;;;4952232;28;20051;-59
2021/05/29 10:25:20;;;;;;;10.15;7.50;;;20.60;66.00;;;;;;4958872;28;20516;-59
2021/05/29 10:27:52;;;;;;;11.38;8.50;;;20.30;67.40;;;;;;4963120;28;20141;-58
2021/05/29 10:30:30;;;;;;;10.18;8.05;;;20.20;68.90;;;;;;4953983;28;20110;-59
2021/05/29 10:33:15;;;;;;;9.85;7.40;;;19.80;66.70;;;;;;4946887;29;20055;-58
2021/05/29 10:35:44;;;;;;;9.60;7.30;;;19.60;65.70;;;;;;4946596;29;20071;-59
2021/05/29 10:38:11;;;;;;;9.57;7.07;;;19.50;66.70;;;;;;5006856;28;20488;-58
2021/05/29 10:40:49;;;;;;;9.52;6.40;;;20.20;68.90;;;;;;5013366;28;20057;-57
2021/05/29 10:43:18;;;;;;;7.65;6.03;;;20.60;63.40;;;;;;5008395;28;20490;-59
2021/05/29 10:45:50;;;;;;;17.45;15.48;;;20.30;65.30;;;;;;5008229;28;20161;-58
2021/05/29 10:48:46;;;;;;;9.63;7.60;;;20.70;65.70;;;;;;5009549;28;20487;-58
2021/05/29 10:51:13;;;;;;;13.88;12.48;;;20.50;63.00;;;;;;5000574;28;20093;-58
2021/05/29 10:53:54;;;;;;;9.82;7.05;;;20.40;65.40;;;;;;5007978;28;20053;-58
2021/05/29 10:56:22;;;;;;;11.73;9.15;;;20.20;65.80;;;;;;5006300;28;20120;-59
2021/05/29 10:59:19;;;;;;;9.23;7.75;;;20.20;65.20;;;;;;5008566;28;20069;-59
2021/05/29 11:01:48;;;;;;;7.50;6.22;;;20.00;64.50;;;;;;5010171;28;20054;-59
2021/05/29 11:04:18;;;;;;;9.48;7.55;;;19.90;65.40;;;;;;5005629;28;20053;-59
2021/05/29 11:06:49;;;;;;;10.10;6.32;;;19.70;63.40;;;;;;5010228;28;20502;-58
2021/05/29 11:09:18;;;;;;;10.85;8.30;;;20.00;65.40;;;;;;5007244;28;20083;-59
2021/05/29 11:11:48;;;;;;;10.57;7.78;;;19.90;65.00;;;;;;5008285;28;20054;-58
2021/05/29 11:14:18;;;;;;;9.20;6.72;;;20.10;64.90;;;;;;5008290;28;20053;-51
2021/05/29 11:16:47;;;;;;;8.77;6.10;;;19.50;63.70;;;;;;5008181;28;20057;-59
2021/05/29 11:19:28;;;;;;;7.22;6.38;;;19.60;66.00;;;;;;5006760;28;20050;-53
2021/05/29 11:22:09;;;;;;;10.10;7.20;;;19.80;66.60;;;;;;5007281;28;20113;-52
2021/05/29 11:24:53;;;;;;;10.20;7.00;;;20.40;65.90;;;;;;5007409;28;20301;-54
2021/05/29 11:27:21;;;;;;;10.63;6.18;;;21.10;63.10;;;;;;5007267;28;20610;-54
2021/05/29 11:29:50;;;;;;;8.93;7.50;;;21.30;64.40;;;;;;5011436;28;20053;-56
2021/05/29 11:35:44;;;;;;;9.68;8.25;;;21.80;60.10;;;;;;4952746;28;20062;-58
2021/05/29 11:38:18;;;;;;;8.88;6.50;;;21.50;61.90;;;;;;4960987;28;20046;-54
2021/05/29 11:40:45;;;;;;;8.15;6.43;;;21.40;61.20;;;;;;4965057;28;20057;-56
2021/05/29 11:43:13;;;;;;;11.45;6.45;;;21.00;60.90;;;;;;4964106;28;20063;-53
2021/05/29 11:45:39;;;;;;;9.90;6.68;;;20.90;61.50;;;;;;4967525;28;20053;-57
2021/05/29 11:48:07;;;;;;;8.98;6.38;;;21.00;62.10;;;;;;4965528;28;20051;-56
2021/05/29 11:51:08;;;;;;;8.15;5.25;;;21.50;61.80;;;;;;4934179;28;20059;-54
2021/05/29 11:53:24;;;;;;;8.20;5.25;;;21.50;60.20;;;;;;4963581;28;20058;-56
2021/05/29 11:55:52;;;;;;;10.15;5.90;;;21.50;59.80;;;;;;4959836;28;20198;-57
2021/05/29 11:58:19;;;;;;;10.77;5.63;;;21.70;58.80;;;;;;4946687;29;20066;-54
2021/05/29 12:00:59;;;;;;;9.02;4.97;;;21.90;57.80;;;;;;4948463;28;20047;-55
2021/05/29 12:03:43;;;;;;;10.07;5.50;;;22.50;60.30;;;;;;4960018;28;20174;-56
2021/05/29 12:06:11;;;;;;;7.50;4.78;;;22.20;56.40;;;;;;4953138;28;20047;-56
2021/05/29 12:08:54;;;;;;;7.10;5.30;;;21.70;57.00;;;;;;4957768;28;20085;-58
2021/05/29 12:11:28;;;;;;;39.20;35.22;;;21.60;57.00;;;;;;5025277;28;20044;-58
2021/05/29 12:13:57;;;;;;;12.02;9.40;;;21.50;56.30;;;;;;5006615;28;20045;-58
2021/05/29 12:16:27;;;;;;;11.95;9.63;;;21.40;58.10;;;;;;5022702;28;20049;-55
2021/05/29 12:18:57;;;;;;;7.70;5.78;;;21.30;57.20;;;;;;5023604;28;20057;-52
2021/05/29 12:21:24;;;;;;;8.65;5.38;;;21.10;59.00;;;;;;5021050;28;20127;-51
2021/05/29 12:23:56;;;;;;;9.93;6.68;;;20.60;58.70;;;;;;5019239;28;20136;-54
2021/05/29 12:26:26;;;;;;;9.82;5.78;;;21.40;59.40;;;;;;5021024;28;20045;-55
2021/05/29 12:28:53;;;;;;;11.30;7.90;;;21.80;57.50;;;;;;5025618;28;20053;-56
2021/05/29 12:31:22;;;;;;;7.47;4.97;;;21.60;56.70;;;;;;5026807;28;20433;-55
2021/05/29 12:34:08;;;;;;;28.13;25.17;;;21.60;57.20;;;;;;5026657;28;20072;-54
2021/05/29 12:36:34;;;;;;;7.07;5.60;;;21.40;57.10;;;;;;5020792;28;20050;-52
2021/05/29 12:39:03;;;;;;;8.82;5.18;;;21.10;57.90;;;;;;5017389;28;20063;-54
2021/05/29 12:41:36;;;;;;;10.95;9.05;;;21.00;57.70;;;;;;5022685;28;20099;-53
2021/05/29 12:44:05;;;;;;;10.93;5.28;;;21.10;58.40;;;;;;5023815;28;20056;-53
2021/05/29 12:46:32;;;;;;;7.45;4.85;;;21.50;59.00;;;;;;5026267;28;20049;-51
2021/05/29 12:49:02;;;;;;;9.77;7.90;;;21.90;58.30;;;;;;5032774;28;20041;-50
2021/05/29 12:51:51;;;;;;;10.25;6.35;;;21.40;55.30;;;;;;5026077;28;20041;-50
2021/05/29 12:54:17;;;;;;;15.38;13.73;;;21.60;57.00;;;;;;5025586;28;20042;-53
2021/05/29 12:56:51;;;;;;;19.83;17.73;;;22.20;57.90;;;;;;5025562;28;20041;-50
2021/05/29 12:59:27;;;;;;;6.72;4.82;;;23.00;55.00;;;;;;5025771;28;20083;-53
2021/05/29 13:07:28;;;;;;;17.70;14.90;;;23.90;47.80;;;;;;5023688;28;20057;-53
2021/05/29 13:10:06;;;;;;;6.82;4.65;;;23.90;48.90;;;;;;5025839;28;20498;-51
2021/05/29 13:12:33;;;;;;;79.15;71.47;;;23.80;51.30;;;;;;5021454;28;20061;-52